Raymond, Canada
Current Conditions -  °F | °C
As of 2:00 PM on Monday 22 Dec 2014 (Local Time) from CYQL Reporting Station
Broken Clouds Broken Clouds  
Wind Chill: -2°   Ceiling: 7500
Heat Index:   Visibility: 40mi
Dew Point: -4°   Wind: 15mph
Humidity: 60%   Direction: 270°W
Pressure: 29.95"   Gusts: NA
Location:  49.47°N, 112.66°W
Report Text: CYQL 222100Z 27013KT 40SM BKN075 03/M04 A2995 RMK AC6 SLP176
Loading
Personal Weather Stations






























Interactive Weather Map New forecast layout! Learn more

10-Day Weather Forecast

Advertisements
Track Severe Weather on mobile